createdAt,value
2018-09-27T00:00:40.166Z,102614.19
2018-09-27T00:03:08.701Z,102614.59
2018-09-27T00:05:37.206Z,102609.98
2018-09-27T00:08:05.686Z,102609.78
2018-09-27T00:10:34.066Z,102608.65
2018-09-27T00:13:02.776Z,102596.78
2018-09-27T00:15:31.199Z,102600.98
2018-09-27T00:18:00.019Z,102603.64
2018-09-27T00:20:28.687Z,102600.03
2018-09-27T00:22:57.095Z,102599.84
2018-09-27T00:25:26.201Z,102592.04
2018-09-27T00:27:55.040Z,102591.94
2018-09-27T00:30:30.427Z,102607.13
2018-09-27T00:32:58.905Z,102596.27
2018-09-27T00:35:27.483Z,102594.40
2018-09-27T00:37:55.897Z,102600.77
2018-09-27T00:40:24.282Z,102605.35
2018-09-27T00:42:52.662Z,102605.14
2018-09-27T00:45:21.127Z,102605.56
2018-09-27T00:47:49.553Z,102608.94
2018-09-27T00:50:17.941Z,102612.83
2018-09-27T00:52:46.369Z,102602.61
2018-09-27T00:55:14.819Z,102606.70
2018-09-27T00:57:43.161Z,102598.82
2018-09-27T01:00:11.539Z,102611.22
2018-09-27T01:02:40.286Z,102608.55
2018-09-27T01:05:08.639Z,102602.41
2018-09-27T01:07:37.234Z,102603.02
2018-09-27T01:10:05.922Z,102606.40
2018-09-27T01:12:34.932Z,102601.59
2018-09-27T01:15:03.364Z,102597.08
2018-09-27T01:17:31.826Z,102598.72
2018-09-27T01:20:00.165Z,102600.05
2018-09-27T01:22:28.787Z,102603.53
2018-09-27T01:24:57.233Z,102603.33
2018-09-27T01:27:25.860Z,102606.70
2018-09-27T01:29:54.331Z,102609.67
2018-09-27T01:32:22.730Z,102609.05
2018-09-27T01:34:51.699Z,102607.52
2018-09-27T01:37:20.138Z,102608.23
2018-09-27T01:39:48.738Z,102607.13
2018-09-27T01:42:17.152Z,102604.86
2018-09-27T01:44:45.740Z,102603.33
2018-09-27T01:47:14.316Z,102604.35
2018-09-27T01:49:42.724Z,102599.64
2018-09-27T01:52:11.261Z,102594.01
2018-09-27T01:54:40.072Z,102595.45
2018-09-27T01:57:08.760Z,102589.81
2018-09-27T01:59:37.126Z,102589.30
2018-09-27T02:02:05.658Z,102590.84
2018-09-27T02:04:34.066Z,102596.78
2018-09-27T02:07:02.573Z,102599.95
2018-09-27T02:09:31.113Z,102591.34
2018-09-27T02:11:59.448Z,102596.57
2018-09-27T02:14:27.860Z,102591.45
2018-09-27T02:16:56.278Z,102594.83
2018-09-27T02:19:25.556Z,102584.19
2018-09-27T02:21:54.370Z,102589.09
2018-09-27T02:24:23.027Z,102582.95
2018-09-27T02:26:52.302Z,102591.66
2018-09-27T02:29:20.717Z,102590.63
2018-09-27T02:31:49.160Z,102589.81
2018-09-27T02:34:17.627Z,102598.11
2018-09-27T02:36:46.129Z,102596.57
2018-09-27T02:39:15.991Z,102597.08
2018-09-27T02:41:44.404Z,102598.72
2018-09-27T02:44:12.800Z,102589.81
2018-09-27T02:46:41.146Z,102590.84
2018-09-27T02:49:09.512Z,102586.33
2018-09-27T02:51:38.760Z,102587.35
2018-09-27T02:54:07.167Z,102589.70
2018-09-27T02:56:35.523Z,102591.66
2018-09-27T02:59:03.930Z,102589.29
2018-09-27T03:01:32.276Z,102592.78
2018-09-27T03:04:00.714Z,102587.84
2018-09-27T03:06:29.226Z,102593.67
2018-09-27T03:08:57.612Z,102593.16
2018-09-27T03:11:25.949Z,102590.73
2018-09-27T03:13:54.366Z,102590.20
2018-09-27T03:16:22.815Z,102592.48
2018-09-27T03:18:51.170Z,102584.98
2018-09-27T03:21:21.212Z,102588.77
2018-09-27T03:23:49.556Z,102584.67
2018-09-27T03:26:17.904Z,102584.56
2018-09-27T03:28:46.244Z,102589.89
2018-09-27T03:31:14.590Z,102584.26
2018-09-27T03:33:42.972Z,102578.94
2018-09-27T03:36:11.444Z,102580.89
2018-09-27T03:38:39.816Z,102591.33
2018-09-27T03:41:08.199Z,102590.72
2018-09-27T03:43:36.645Z,102599.01
2018-09-27T03:46:05.003Z,102592.36
2018-09-27T03:48:33.396Z,102587.34
2018-09-27T03:51:01.958Z,102577.20
2018-09-27T03:53:30.333Z,102573.11
2018-09-27T03:55:58.726Z,102581.50
2018-09-27T03:58:27.094Z,102579.16
2018-09-27T04:00:55.571Z,102580.28
2018-09-27T04:03:24.040Z,102567.48
2018-09-27T04:05:52.328Z,102566.56
2018-09-27T04:08:20.702Z,102569.33
2018-09-27T04:10:49.282Z,102566.95
2018-09-27T04:13:17.726Z,102550.77
2018-09-27T04:15:47.255Z,102551.49
2018-09-27T04:18:15.662Z,102558.25
2018-09-27T04:20:52.185Z,102555.48
2018-09-27T04:23:22.383Z,102561.31
2018-09-27T04:25:51.766Z,102564.48
2018-09-27T04:28:20.653Z,102567.15
2018-09-27T04:30:49.145Z,102565.20
2018-09-27T04:33:17.557Z,102559.58
2018-09-27T04:35:46.039Z,102556.91
2018-09-27T04:38:14.500Z,102556.51
2018-09-27T04:40:42.904Z,102553.84
2018-09-27T04:43:11.466Z,102551.80
2018-09-27T04:45:39.951Z,102562.23
2018-09-27T04:48:08.278Z,102559.27
2018-09-27T04:50:36.736Z,102557.64
2018-09-27T04:53:05.134Z,102560.27
2018-09-27T04:55:33.724Z,102555.86
2018-09-27T04:58:02.334Z,102557.41
2018-09-27T05:00:31.435Z,102568.66
2018-09-27T05:02:59.947Z,102562.72
2018-09-27T05:05:29.117Z,102569.06
2018-09-27T05:07:57.663Z,102572.14
2018-09-27T05:10:26.200Z,102567.12
2018-09-27T05:12:54.826Z,102568.05
2018-09-27T05:15:23.286Z,102562.17
2018-09-27T05:17:51.614Z,102572.13
2018-09-27T05:20:20.327Z,102567.42
2018-09-27T05:22:48.742Z,102577.52
2018-09-27T05:25:17.115Z,102579.25
2018-09-27T05:27:45.565Z,102576.19
2018-09-27T05:30:14.009Z,102574.15
2018-09-27T05:32:42.424Z,102571.06
2018-09-27T05:35:10.917Z,102576.91
2018-09-27T05:37:39.364Z,102577.42
2018-09-27T05:40:08.062Z,102579.16
2018-09-27T05:42:36.470Z,102589.89
2018-09-27T05:45:04.852Z,102585.49
2018-09-27T05:47:39.674Z,102587.64
2018-09-27T05:50:08.465Z,102590.66
2018-09-27T05:52:36.894Z,102592.70
2018-09-27T05:55:05.361Z,102590.80
2018-09-27T05:57:33.845Z,102589.47
2018-09-27T06:00:02.324Z,102590.55
2018-09-27T06:02:30.960Z,102598.32
2018-09-27T06:04:59.458Z,102594.64
2018-09-27T06:07:27.941Z,102589.20
2018-09-27T06:09:56.566Z,102598.70
2018-09-27T06:12:24.992Z,102581.08
2018-09-27T06:14:53.482Z,102591.98
2018-09-27T06:17:21.924Z,102587.06
2018-09-27T06:19:50.559Z,102589.83
2018-09-27T06:22:19.070Z,102598.71
2018-09-27T06:24:47.862Z,102594.02
2018-09-27T06:27:16.248Z,102596.56
2018-09-27T06:29:44.738Z,102592.06
2018-09-27T06:32:13.189Z,102600.46
2018-09-27T06:34:41.656Z,102595.66
2018-09-27T06:37:10.167Z,102594.02
2018-09-27T06:39:38.609Z,102599.84
2018-09-27T06:42:07.213Z,102593.40
2018-09-27T06:44:35.660Z,102596.67
2018-09-27T06:47:04.231Z,102599.22
2018-09-27T06:49:32.740Z,102591.98
2018-09-27T06:52:01.452Z,102599.02
2018-09-27T06:54:29.839Z,102591.47
2018-09-27T06:56:58.389Z,102597.38
2018-09-27T06:59:26.968Z,102601.53
2018-09-27T07:01:55.538Z,102598.36
2018-09-27T07:04:23.958Z,102591.98
2018-09-27T07:06:52.451Z,102591.10
2018-09-27T07:09:20.922Z,102581.42
2018-09-27T07:11:49.581Z,102582.92
2018-09-27T07:14:18.123Z,102582.55
2018-09-27T07:16:46.565Z,102580.82
2018-09-27T07:19:15.133Z,102577.14
2018-09-27T07:21:43.557Z,102591.04
2018-09-27T07:24:12.133Z,102587.62
2018-09-27T07:26:40.574Z,102591.72
2018-09-27T07:29:08.987Z,102588.44
2018-09-27T07:31:37.617Z,102591.15
2018-09-27T07:34:06.203Z,102594.17
2018-09-27T07:36:34.743Z,102591.42
2018-09-27T07:39:03.285Z,102591.48
2018-09-27T07:41:31.856Z,102594.89
2018-09-27T07:44:00.373Z,102601.84
2018-09-27T07:46:28.869Z,102596.13
2018-09-27T07:48:57.272Z,102592.33
2018-09-27T07:51:25.675Z,102597.96
2018-09-27T07:53:55.030Z,102601.51
2018-09-27T07:56:23.683Z,102602.16
2018-09-27T07:58:52.247Z,102602.98
2018-09-27T08:01:21.001Z,102606.91
2018-09-27T08:03:49.669Z,102603.88
2018-09-27T08:06:18.202Z,102607.75
2018-09-27T08:08:47.555Z,102598.91
2018-09-27T08:11:16.195Z,102598.91
2018-09-27T08:13:44.567Z,102597.17
2018-09-27T08:16:13.012Z,102601.27
2018-09-27T08:18:41.735Z,102602.59
2018-09-27T08:21:10.432Z,102597.89
2018-09-27T08:23:38.901Z,102588.99
2018-09-27T08:26:07.418Z,102592.85
2018-09-27T08:28:35.769Z,102602.64
2018-09-27T08:31:04.303Z,102600.24
2018-09-27T08:33:32.903Z,102598.09
2018-09-27T08:36:01.931Z,102604.82
2018-09-27T08:38:30.430Z,102591.19
2018-09-27T08:40:58.876Z,102595.00
2018-09-27T08:43:27.408Z,102592.42
2018-09-27T08:45:55.901Z,102596.13
2018-09-27T08:48:24.277Z,102589.91
2018-09-27T08:50:52.769Z,102586.09
2018-09-27T08:53:21.157Z,102583.21
2018-09-27T08:55:49.677Z,102579.81
2018-09-27T08:58:18.077Z,102583.47
2018-09-27T09:00:46.473Z,102578.06
2018-09-27T09:03:15.072Z,102573.13
2018-09-27T09:05:43.457Z,102576.54
2018-09-27T09:08:12.598Z,102567.48
2018-09-27T09:10:41.452Z,102561.34
2018-09-27T09:13:10.049Z,102560.69
2018-09-27T09:15:38.531Z,102560.49
2018-09-27T09:18:07.210Z,102561.98
2018-09-27T09:20:35.606Z,102558.42
2018-09-27T09:23:04.220Z,102560.76
2018-09-27T09:25:32.653Z,102547.84
2018-09-27T09:28:01.183Z,102553.45
2018-09-27T09:30:29.605Z,102541.13
2018-09-27T09:32:58.084Z,102533.88
2018-09-27T09:35:26.509Z,102528.37
2018-09-27T09:37:54.980Z,102533.28
2018-09-27T09:40:23.500Z,102525.11
2018-09-27T09:42:51.912Z,102524.15
2018-09-27T09:45:20.387Z,102524.06
2018-09-27T09:47:49.003Z,102514.64
2018-09-27T09:50:17.526Z,102508.29
2018-09-27T09:52:46.018Z,102510.63
2018-09-27T09:55:14.576Z,102513.36
2018-09-27T09:57:43.232Z,102505.44
2018-09-27T10:00:11.634Z,102503.67
2018-09-27T10:02:40.084Z,102499.85
2018-09-27T10:05:08.690Z,102492.61
2018-09-27T10:07:37.130Z,102490.09
2018-09-27T10:10:07.468Z,102489.33
2018-09-27T10:12:35.865Z,102478.93
2018-09-27T10:15:07.707Z,102485.71
2018-09-27T10:17:36.359Z,102487.39
2018-09-27T10:20:04.845Z,102479.23
2018-09-27T10:22:33.450Z,102477.28
2018-09-27T10:25:02.045Z,102475.69
2018-09-27T10:27:30.501Z,102478.70
2018-09-27T10:29:58.951Z,102480.28
2018-09-27T10:32:27.484Z,102474.92
2018-09-27T10:34:56.036Z,102473.20
2018-09-27T10:37:24.537Z,102470.05
2018-09-27T10:39:53.203Z,102473.58
2018-09-27T10:42:21.730Z,102465.05
2018-09-27T10:44:50.839Z,102461.33
2018-09-27T10:47:19.246Z,102447.40
2018-09-27T10:49:47.693Z,102445.66
2018-09-27T10:52:16.086Z,102450.20
2018-09-27T10:54:44.496Z,102449.73
2018-09-27T10:57:13.147Z,102449.88
2018-09-27T10:59:41.782Z,102446.35
2018-09-27T11:02:10.905Z,102441.52
2018-09-27T11:04:40.006Z,102444.33
2018-09-27T11:07:08.523Z,102439.87
2018-09-27T11:09:37.183Z,102424.80
2018-09-27T11:12:05.689Z,102428.14
2018-09-27T11:14:34.764Z,102419.91
2018-09-27T11:17:03.409Z,102412.36
2018-09-27T11:19:32.054Z,102419.55
2018-09-27T11:22:01.007Z,102403.89
2018-09-27T11:24:30.074Z,102396.02
2018-09-27T11:26:59.647Z,102396.09
2018-09-27T11:29:33.488Z,102391.33
2018-09-27T11:32:07.275Z,102392.28
2018-09-27T11:34:36.187Z,102388.29
2018-09-27T11:37:04.735Z,102372.56
2018-09-27T11:39:33.727Z,102371.16
2018-09-27T11:42:02.485Z,102365.19
2018-09-27T11:44:31.354Z,102363.80
2018-09-27T11:47:00.523Z,102358.83
2018-09-27T11:49:29.037Z,102357.95
2018-09-27T11:51:57.493Z,102358.68
2018-09-27T11:54:25.985Z,102350.84
2018-09-27T11:56:54.420Z,102341.59
2018-09-27T11:59:22.947Z,102336.95
2018-09-27T12:01:51.604Z,102336.54
2018-09-27T12:04:20.113Z,102329.68
2018-09-27T12:06:48.575Z,102332.48
2018-09-27T12:09:17.040Z,102326.67
2018-09-27T12:11:45.563Z,102324.77
2018-09-27T12:14:14.568Z,102325.09
2018-09-27T12:16:43.102Z,102324.52
2018-09-27T12:19:11.533Z,102311.16
2018-09-27T12:21:40.015Z,102312.65
2018-09-27T12:24:08.451Z,102310.05
2018-09-27T12:26:37.010Z,102311.61
2018-09-27T12:29:05.468Z,102302.19
2018-09-27T12:31:35.814Z,102302.33
2018-09-27T12:34:04.292Z,102298.55
2018-09-27T12:36:32.788Z,102295.89
2018-09-27T12:39:01.312Z,102281.77
2018-09-27T12:41:29.785Z,102282.02
2018-09-27T12:43:58.208Z,102285.38
2018-09-27T12:46:26.646Z,102275.08
2018-09-27T12:48:55.249Z,102273.16
2018-09-27T12:51:23.721Z,102269.95
2018-09-27T12:53:52.238Z,102260.31
2018-09-27T12:56:20.748Z,102257.06
2018-09-27T12:58:49.251Z,102259.50
2018-09-27T13:01:17.811Z,102257.63
2018-09-27T13:03:46.293Z,102253.64
2018-09-27T13:06:14.714Z,102251.45
2018-09-27T13:08:43.160Z,102247.42
2018-09-27T13:11:11.816Z,102240.97
2018-09-27T13:13:40.707Z,102230.23
2018-09-27T13:16:09.394Z,102233.16
2018-09-27T13:18:37.825Z,102223.77
2018-09-27T13:21:06.218Z,102217.91
2018-09-27T13:23:34.894Z,102215.03
2018-09-27T13:26:03.367Z,102216.13
2018-09-27T13:28:31.912Z,102214.44
2018-09-27T13:31:00.572Z,102213.69
2018-09-27T13:33:28.983Z,102216.16
2018-09-27T13:35:57.467Z,102207.02
2018-09-27T13:38:26.192Z,102207.80
2018-09-27T13:40:54.736Z,102205.64
2018-09-27T13:43:23.214Z,102207.30
2018-09-27T13:45:51.878Z,102197.28
2018-09-27T13:48:20.435Z,102197.34
2018-09-27T13:50:48.819Z,102196.47
2018-09-27T13:53:17.289Z,102195.09
2018-09-27T13:55:45.729Z,102191.29
2018-09-27T13:58:14.141Z,102191.29
2018-09-27T14:00:42.553Z,102187.67
2018-09-27T14:03:11.313Z,102178.19
2018-09-27T14:05:39.760Z,102177.06
2018-09-27T14:08:08.402Z,102165.30
2018-09-27T14:10:36.934Z,102174.12
2018-09-27T14:13:05.425Z,102160.23
2018-09-27T14:15:33.978Z,102155.93
2018-09-27T14:18:02.535Z,102152.19
2018-09-27T14:20:31.067Z,102152.16
2018-09-27T14:22:59.829Z,102153.47
2018-09-27T14:25:28.211Z,102154.28
2018-09-27T14:27:56.854Z,102145.17
2018-09-27T14:30:25.315Z,102133.41
2018-09-27T14:32:53.886Z,102133.45
2018-09-27T14:35:22.294Z,102135.89
2018-09-27T14:37:50.871Z,102132.06
2018-09-27T14:40:19.315Z,102129.97
2018-09-27T14:42:47.839Z,102128.14
2018-09-27T14:45:16.265Z,102124.14
2018-09-27T14:47:45.650Z,102134.33
2018-09-27T14:50:14.519Z,102132.48
2018-09-27T14:52:42.993Z,102121.16
2018-09-27T14:55:11.342Z,102122.75
2018-09-27T14:57:39.788Z,102123.25
2018-09-27T15:00:08.230Z,102116.19
2018-09-27T15:02:36.923Z,102119.65
2018-09-27T15:05:05.484Z,102116.38
2018-09-27T15:07:33.866Z,102116.07
2018-09-27T15:10:02.767Z,102106.66
2018-09-27T15:12:31.164Z,102107.74
2018-09-27T15:14:59.590Z,102098.10
2018-09-27T15:17:28.176Z,102100.98
2018-09-27T15:19:56.673Z,102099.55
2018-09-27T15:22:25.156Z,102099.80
2018-09-27T15:24:53.648Z,102100.61
2018-09-27T15:27:22.290Z,102090.94
2018-09-27T15:29:50.782Z,102099.46
2018-09-27T15:32:19.605Z,102093.53
2018-09-27T15:34:48.643Z,102094.09
2018-09-27T15:37:17.233Z,102094.97
2018-09-27T15:39:45.905Z,102092.53
2018-09-27T15:42:14.467Z,102081.44
2018-09-27T15:44:42.912Z,102086.80
2018-09-27T15:47:11.463Z,102078.16
2018-09-27T15:49:40.290Z,102073.08
2018-09-27T15:52:09.054Z,102066.06
2018-09-27T15:54:37.721Z,102064.98
2018-09-27T15:57:06.391Z,102065.56
2018-09-27T15:59:35.230Z,102060.70
2018-09-27T16:02:04.306Z,102059.86
2018-09-27T16:04:51.632Z,102054.50
2018-09-27T16:07:25.994Z,102057.46
2018-09-27T16:09:54.679Z,102056.34
2018-09-27T16:12:23.342Z,102054.22
2018-09-27T16:14:51.949Z,102045.05
2018-09-27T16:17:20.388Z,102042.38
2018-09-27T16:19:48.874Z,102037.80
2018-09-27T16:22:17.263Z,102034.05
2018-09-27T16:24:45.719Z,102037.02
2018-09-27T16:27:14.186Z,102032.16
2018-09-27T16:29:42.857Z,102035.11
2018-09-27T16:32:11.965Z,102024.11
2018-09-27T16:34:40.481Z,102027.06
2018-09-27T16:37:09.125Z,102029.53
2018-09-27T16:39:37.773Z,102022.77
2018-09-27T16:42:06.874Z,102017.16
2018-09-27T16:44:35.353Z,102020.02
2018-09-27T16:47:04.003Z,102014.10
2018-09-27T16:49:32.413Z,102017.04
2018-09-27T16:52:01.141Z,102011.14
2018-09-27T16:54:29.751Z,102017.84
2018-09-27T16:56:58.119Z,102016.84
2018-09-27T16:59:26.603Z,102006.31
2018-09-27T17:01:55.150Z,102007.38
2018-09-27T17:04:23.689Z,102004.69
2018-09-27T17:06:52.149Z,102006.31
2018-09-27T17:09:20.541Z,101999.36
2018-09-27T17:11:49.049Z,101994.75
2018-09-27T17:14:17.569Z,101997.66
2018-09-27T17:16:46.010Z,101992.59
2018-09-27T17:19:14.527Z,101984.30
2018-09-27T17:24:11.168Z,101983.13
2018-09-27T17:26:39.676Z,101986.59
2018-09-27T17:29:11.485Z,101981.77
2018-09-27T17:31:39.935Z,101979.61
2018-09-27T17:34:08.559Z,101975.06
2018-09-27T17:36:36.942Z,101972.91
2018-09-27T17:39:06.901Z,101973.91
2018-09-27T17:41:35.432Z,101973.88
2018-09-27T17:44:03.936Z,101970.36
2018-09-27T17:46:32.701Z,101970.92
2018-09-27T17:49:01.411Z,101976.50
2018-09-27T17:51:30.181Z,101970.30
2018-09-27T17:53:58.649Z,101974.85
2018-09-27T17:56:27.378Z,101975.85
2018-09-27T17:58:55.894Z,101970.80
2018-09-27T18:01:24.377Z,101971.08
2018-09-27T18:03:52.978Z,101974.73
2018-09-27T18:06:21.419Z,101977.16
2018-09-27T18:08:50.010Z,101978.97
2018-09-27T18:11:18.490Z,101977.41
2018-09-27T18:13:46.989Z,101982.17
2018-09-27T18:16:15.555Z,101973.83
2018-09-27T18:18:45.045Z,101977.34
2018-09-27T18:21:13.776Z,101974.88
2018-09-27T18:23:42.362Z,101969.25
2018-09-27T18:26:11.040Z,101965.76
2018-09-27T18:28:39.797Z,101968.31
2018-09-27T18:31:08.507Z,101957.78
2018-09-27T18:33:36.983Z,101960.95
2018-09-27T18:36:05.424Z,101955.06
2018-09-27T18:38:34.211Z,101959.86
2018-09-27T18:41:02.966Z,101963.06
2018-09-27T18:43:31.911Z,101954.66
2018-09-27T18:46:00.469Z,101954.91
2018-09-27T18:48:29.322Z,101952.16
2018-09-27T18:50:57.941Z,101963.67
2018-09-27T18:53:26.579Z,101959.34
2018-09-27T18:55:55.297Z,101953.11
2018-09-27T18:58:24.005Z,101938.07
2018-09-27T19:00:53.555Z,101940.47
2018-09-27T19:03:22.346Z,101946.88
2018-09-27T19:05:51.054Z,101939.34
2018-09-27T19:08:19.868Z,101941.95
2018-09-27T19:10:48.723Z,101935.75
2018-09-27T19:13:17.386Z,101943.77
2018-09-27T19:15:45.891Z,101937.86
2018-09-27T19:18:14.745Z,101927.44
2018-09-27T19:20:43.295Z,101921.55
2018-09-27T19:23:11.907Z,101919.44
2018-09-27T19:25:40.429Z,101911.69
2018-09-27T19:28:09.148Z,101912.61
2018-09-27T19:30:37.914Z,101912.30
2018-09-27T19:33:06.742Z,101906.05
2018-09-27T19:35:35.278Z,101904.40
2018-09-27T19:38:04.046Z,101901.48
2018-09-27T19:40:32.959Z,101898.52
2018-09-27T19:43:01.637Z,101892.36
2018-09-27T19:45:30.539Z,101887.53
2018-09-27T19:47:59.381Z,101881.66
2018-09-27T19:50:28.240Z,101880.31
2018-09-27T19:52:57.516Z,101880.56
2018-09-27T19:55:26.735Z,101872.25
2018-09-27T19:57:55.913Z,101871.66
2018-09-27T20:00:25.509Z,101865.74
2018-09-27T20:02:54.863Z,101867.61
2018-09-27T20:05:24.185Z,101870.53
2018-09-27T20:07:54.088Z,101864.90
2018-09-27T20:10:24.002Z,101861.09
2018-09-27T20:12:53.163Z,101865.80
2018-09-27T20:15:22.564Z,101868.55
2018-09-27T20:17:52.050Z,101863.59
2018-09-27T20:20:21.076Z,101866.48
2018-09-27T20:22:49.959Z,101860.52
2018-09-27T20:25:18.864Z,101859.67
2018-09-27T20:27:47.551Z,101861.75
2018-09-27T20:30:16.241Z,101858.27
2018-09-27T20:32:44.916Z,101858.83
2018-09-27T20:35:13.498Z,101849.99
2018-09-27T20:37:42.488Z,101849.36
2018-09-27T20:40:11.088Z,101844.78
2018-09-27T20:42:39.763Z,101841.70
2018-09-27T20:45:08.339Z,101841.67
2018-09-27T20:47:37.126Z,101837.09
2018-09-27T20:50:05.760Z,101829.81
2018-09-27T20:52:34.696Z,101830.82
2018-09-27T20:55:03.867Z,101830.45
2018-09-27T20:57:32.453Z,101818.06
2018-09-27T21:00:01.257Z,101812.08
2018-09-27T21:02:30.308Z,101831.59
2018-09-27T21:04:58.727Z,101839.57
2018-09-27T21:07:27.323Z,101837.38
2018-09-27T21:10:02.622Z,101840.53
2018-09-27T21:12:31.393Z,101837.25
2018-09-27T21:14:59.818Z,101840.66
2018-09-27T21:17:28.691Z,101836.28
2018-09-27T21:19:57.209Z,101833.27
2018-09-27T21:22:26.465Z,101831.13
2018-09-27T21:24:55.096Z,101831.80
2018-09-27T21:27:23.863Z,101826.51
2018-09-27T21:29:52.379Z,101826.50
2018-09-27T21:32:28.127Z,101809.09
2018-09-27T21:34:57.165Z,101815.39
2018-09-27T21:37:25.809Z,101819.56
2018-09-27T21:39:54.446Z,101813.65
2018-09-27T21:42:23.175Z,101811.55
2018-09-27T21:44:51.773Z,101810.08
2018-09-27T21:47:20.248Z,101808.93
2018-09-27T21:49:48.973Z,101804.69
2018-09-27T21:52:17.561Z,101807.23
2018-09-27T21:54:46.162Z,101807.55
2018-09-27T21:57:14.920Z,101812.18
2018-09-27T21:59:43.788Z,101812.18
2018-09-27T22:02:12.395Z,101808.89
2018-09-27T22:04:41.148Z,101817.81
2018-09-27T22:07:10.134Z,101824.05
2018-09-27T22:09:38.716Z,101825.61
2018-09-27T22:12:07.350Z,101818.34
2018-09-27T22:14:35.909Z,101817.19
2018-09-27T22:17:04.561Z,101811.28
2018-09-27T22:19:33.483Z,101817.38
2018-09-27T22:22:02.482Z,101809.94
2018-09-27T22:24:30.999Z,101816.42
2018-09-27T22:26:59.773Z,101815.62
2018-09-27T22:29:28.209Z,101816.52
2018-09-27T22:31:56.732Z,101819.52
2018-09-27T22:34:25.244Z,101807.84
2018-09-27T22:36:54.103Z,101814.23
2018-09-27T22:39:22.663Z,101816.56
2018-09-27T22:41:51.047Z,101805.18
2018-09-27T22:44:19.655Z,101808.42
2018-09-27T22:46:48.137Z,101815.33
2018-09-27T22:49:16.540Z,101811.56
2018-09-27T22:51:44.964Z,101813.27
2018-09-27T22:54:13.543Z,101817.45
2018-09-27T22:56:42.133Z,101821.37
2018-09-27T22:59:10.582Z,101816.50
2018-09-27T23:01:39.119Z,101822.79
2018-09-27T23:04:07.705Z,101816.32
2018-09-27T23:06:36.252Z,101819.59
2018-09-27T23:09:06.260Z,101825.32
2018-09-27T23:11:34.914Z,101828.92
2018-09-27T23:14:04.712Z,101835.77
2018-09-27T23:16:33.263Z,101842.73
2018-09-27T23:19:02.248Z,101841.97
2018-09-27T23:21:30.875Z,101842.59
2018-09-27T23:23:59.774Z,101845.11
2018-09-27T23:26:29.184Z,101836.80
2018-09-27T23:28:57.941Z,101837.61
2018-09-27T23:31:26.960Z,101837.61
2018-09-27T23:33:55.542Z,101831.23
2018-09-27T23:36:24.403Z,101838.05
2018-09-27T23:38:52.981Z,101840.28
2018-09-27T23:41:21.896Z,101837.73
2018-09-27T23:43:50.511Z,101831.12
2018-09-27T23:46:19.006Z,101829.84
2018-09-27T23:48:47.619Z,101835.00
2018-09-27T23:51:16.221Z,101843.75
2018-09-27T23:53:44.706Z,101840.22
2018-09-27T23:56:13.234Z,101842.30
2018-09-27T23:58:41.855Z,101840.51
